• Join FlightAware (Why Join?)
  • Login
  • US Flag 
02:02AM EDT


 

Airport Tracker/Info


-or-


 

Live Flight TrackerFlight Track Log ✈ OPT438 ✈ 21-Feb-2014 ✈ KTPA - KCGF

Flight Track Log - Related Links

Times and Time Zones

All times are in EST time to prevent confusion due to time zone crossing. See the OPT438 flight status page for this flight to view local times or setup timezone preferences in your user account.

Time Position Orientation Groundspeed Altitude Reporting Facility
EST Latitude Longitude Course Direction KTS MPH feet Rate Location/Type
04:46PM 27.9667 -82.5333 196° South 167 192 1,100  Level Tampa TRACON
04:47PM 27.9167 -82.5500 196° South 184 212 3,400 2,280 Climbing Tampa TRACON
04:48PM 27.8667 -82.5833 211° Southwest 247 284 5,500 2,280 Climbing Tampa TRACON
04:50PM 27.8703 -82.7375 272° West 255 293 10,100 2,220 Climbing Jacksonville Center
04:51PM 27.9619 -82.7328 North 208 239 12,000 900 Climbing Jacksonville Center
04:52PM 28.0517 -82.7067 14° North 263 303 12,000 300 Level Jacksonville Center
04:53PM 28.1331 -82.6783 17° North 283 326 12,600 900 Climbing Jacksonville Center
04:54PM 28.2144 -82.6875 354° North 283 326 13,900 1,200 Climbing Jacksonville Center
04:55PM 28.2958 -82.7111 346° North 289 333 15,000 720 Climbing Jacksonville Center
04:56PM 28.3836 -82.7344 347° North 307 353 15,400 900 Climbing Jacksonville Center
04:57PM 28.4692 -82.7650 343° North 312 359 16,900 1,800 Climbing Jacksonville Center
04:58PM 28.5506 -82.7981 340° North 317 365 19,100 1,860 Climbing Jacksonville Center
04:59PM 28.6361 -82.8264 344° North 311 358 20,700 1,500 Climbing Jacksonville Center
05:00PM 28.7156 -82.8594 340° North 322 371 22,100 1,200 Climbing Jacksonville Center
05:01PM 28.8094 -82.8925 343° North 334 384 23,200 1,080 Climbing Jacksonville Center
05:02PM 28.9053 -82.9306 341° North 346 398 24,300 1,020 Climbing Jacksonville Center
05:03PM 29.0056 -82.9708 341° North 366 421 25,300 840 Climbing Jacksonville Center
05:04PM 29.1100 -83.0092 342° North 379 436 26,000 540 Climbing Jacksonville Center
05:05PM 29.2142 -83.0497 341° North 386 444 26,400 720 Climbing Jacksonville Center
05:06PM 29.3228 -83.0903 342° North 392 451 27,500 1,020 Climbing Jacksonville Center
05:07PM 29.4269 -83.1311 341° North 392 451 28,500 960 Climbing Jacksonville Center
05:08PM 29.5314 -83.1719 341° North 392 451 29,500 1,020 Climbing Jacksonville Center
05:09PM 29.6378 -83.2103 343° North 397 457 30,600 1,020 Climbing Jacksonville Center
05:10PM 29.7483 -83.2419 346° North 397 457 31,600 1,080 Climbing Jacksonville Center
05:11PM 29.8692 -83.2783 345° North 397 457 32,800 1,080 Climbing Jacksonville Center
05:12PM 29.9778 -83.3097 346° North 402 463 33,800 1,020 Climbing Jacksonville Center
05:13PM 30.0842 -83.3392 347° North 397 457 34,900 1,020 Climbing Jacksonville Center
05:14PM 30.1925 -83.3708 346° North 397 457 35,900 1,020 Climbing Jacksonville Center
05:15PM 30.2989 -83.4050 345° North 397 457 37,000 1,020 Climbing Jacksonville Center
05:16PM 30.4011 -83.4344 346° North 391 450 38,000 1,020 Climbing Jacksonville Center
05:17PM 30.5033 -83.4664 345° North 385 443 39,100 840 Climbing Jacksonville Center
05:18PM 30.6014 -83.4936 347° North 370 426 39,700 420 Climbing Jacksonville Center
05:19PM 30.7033 -83.5256 345° North 370 426 40,000 120 Climbing Jacksonville Center
05:20PM 30.8078 -83.5553 346° North 376 433 40,000  Level Jacksonville Center
05:21PM 30.9139 -83.5900 344° North 381 438 40,000  Level Jacksonville Center
05:22PM 31.0244 -83.6222 346° North 392 451 40,000  Level Jacksonville Center
05:25PM 31.3078 -83.7108 345° North 405 466 40,000  Level Atlanta Center
05:26PM 31.4144 -83.7419 346° North 386 444 40,000  Level Atlanta Center
05:27PM 31.5189 -83.7783 343° North 380 437 40,000  Level Atlanta Center
05:28PM 31.6336 -83.8097 347° North 399 459 40,000  Level Atlanta Center
05:29PM 31.7403 -83.8411 346° North 407 468 40,000  Level Atlanta Center
05:30PM 31.8697 -83.8822 345° North 418 481 40,000  Level Atlanta Center
05:31PM 31.9783 -83.9164 345° North 410 472 40,000  Level Atlanta Center
05:32PM 32.0867 -83.9481 346° North 400 460 40,000  Level Atlanta Center
05:33PM 32.1953 -83.9847 344° North 400 460 40,000  Level Atlanta Center
05:34PM 32.3019 -84.0167 346° North 395 455 40,000  Level Atlanta Center
05:35PM 32.4103 -84.0486 346° North 395 455 40,000  Level Atlanta Center
05:36PM 32.5147 -84.0808 345° North 395 455 40,000  Level Atlanta Center
05:37PM 32.6192 -84.1153 344° North 395 455 40,000  Level Atlanta Center
05:38PM 32.7233 -84.1450 347° North 390 449 40,000  Level Atlanta Center
05:39PM 32.8278 -84.1797 344° North 390 449 40,000  Level Atlanta Center
05:40PM 32.9300 -84.2194 342° North 390 449 40,000  Level Atlanta Center
05:41PM 33.0364 -84.2519 346° North 385 443 40,000  Level Atlanta Center
05:42PM 33.1322 -84.2819 345° North 385 443 40,000  Level Atlanta Center
05:43PM 33.2344 -84.3144 345° North 385 443 40,000  Level Atlanta Center
05:44PM 33.3408 -84.3472 346° North 390 449 40,000  Level Atlanta Center
05:45PM 33.4514 -84.3825 345° North 396 456 40,000  Level Atlanta Center
05:46PM 33.5600 -84.4153 346° North 396 456 40,000  Level Atlanta Center
05:47PM 33.6706 -84.4256 356° North 396 456 40,000  Level Atlanta Center
05:48PM 33.7917 -84.3986 10° North 406 467 40,000  Level Atlanta Center
05:49PM 33.9150 -84.3717 10° North 434 499 40,000 -300 Level Atlanta Center
05:50PM 34.0422 -84.3422 11° North 434 499 39,500 -540 Descending Atlanta Center
05:51PM 34.1697 -84.3100 12° North 454 522 39,000 -300 Descending Atlanta Center
05:52PM 34.2908 -84.2803 11° North 460 529 39,000  Level Atlanta Center
05:53PM 34.4119 -84.2503 12° North 446 513 39,000  Level Atlanta Center
05:54PM 34.5308 -84.2128 15° North 441 507 39,000 60 Level Atlanta Center
05:56PM 34.7708 -84.1297 16° North 448 516 39,300 420 Climbing Atlanta Center
05:57PM 34.8878 -84.0894 16° North 442 509 40,400 780 Climbing Atlanta Center
05:58PM 35.0047 -84.0464 17° North 432 497 40,900 300 Climbing Atlanta Center
05:59PM 35.1217 -84.0031 17° North 432 497 41,000  Climbing Atlanta Center
06:00PM 35.2383 -83.9575 18° North 437 503 41,000  Level Atlanta Center
06:01PM 35.3614 -83.9139 16° North 442 509 41,000  Level Atlanta Center
06:02PM 35.4803 -83.8678 18° North 442 509 41,000  Level Atlanta Center
06:03PM 35.6056 -83.8217 17° North 447 514 41,000  Level Atlanta Center
06:04PM 35.7283 -83.7778 16° North 447 514 41,000  Level Atlanta Center
06:05PM 35.8494 -83.7314 17° North 452 520 41,000  Level Atlanta Center
06:06PM 35.9722 -83.6847 17° North 457 526 41,000  Level Atlanta Center
06:07PM 36.0953 -83.6378 17° North 457 526 41,000  Level Atlanta Center
06:08PM 36.2194 -83.5892 18° North 462 532 41,000  Level Indianapolis Center
06:09PM 36.3444 -83.5419 17° North 464 534 41,000  Level Indianapolis Center
06:10PM 36.4878 -83.4881 17° North 466 536 41,000  Level Indianapolis Center
06:11PM 36.6142 -83.4400 17° North 468 539 41,000  Level Indianapolis Center
06:12PM 36.7364 -83.3650 26° Northeast 480 552 41,000  Level Indianapolis Center
06:13PM 36.8586 -83.2878 27° Northeast 483 556 41,000  Level Indianapolis Center
06:14PM 37.0017 -83.1942 28° Northeast 487 560 41,000  Level Indianapolis Center
06:15PM 37.1267 -83.1136 27° Northeast 495 570 41,000  Level Indianapolis Center
06:16PM 37.2489 -83.0339 27° Northeast 494 568 41,000  Level Indianapolis Center
06:17PM 37.3706 -82.9533 28° Northeast 493 567 41,000  Level Indianapolis Center
06:18PM 37.4911 -82.8731 28° Northeast 492 566 41,000  Level Indianapolis Center
06:19PM 37.6128 -82.7939 27° Northeast 492 566 41,000  Level Indianapolis Center
06:20PM 37.7325 -82.7139 28° Northeast 490 564 41,000  Level Indianapolis Center
06:21PM 37.8725 -82.6197 28° Northeast 487 560 41,000  Level Indianapolis Center
06:22PM 37.9919 -82.5397 28° Northeast 487 560 41,000  Level Indianapolis Center
06:24PM 38.1097 -82.4614 28° Northeast 486 559 41,000 -480 Level Indianapolis Center
06:25PM 38.2303 -82.3811 28° Northeast 486 559 40,100 -1,260 Descending Indianapolis Center
06:26PM 38.3547 -82.2981 28° Northeast 494 568 38,400 -1,740 Descending Indianapolis Center
06:27PM 38.4800 -82.2136 28° Northeast 507 583 36,600 -1,800 Descending Indianapolis Center
06:28PM 38.6014 -82.1308 28° Northeast 500 575 34,800 -1,260 Descending Indianapolis Center
06:29PM 38.7206 -82.0533 27° Northeast 483 556 34,000 -420 Descending Indianapolis Center
06:30PM 38.8669 -82.0333 North 439 505 34,000 -240 Level Indianapolis Center
06:31PM 38.9933 -82.0386 358° North 444 511 33,600 -840 Descending Indianapolis Center
06:32PM 39.1172 -82.0458 357° North 448 516 32,400 -1,260 Descending Indianapolis Center
06:33PM 39.2372 -82.0528 357° North 436 502 31,100 -1,260 Descending Indianapolis Center
06:34PM 39.3581 -82.0597 357° North 434 499 29,800 -1,380 Descending Indianapolis Center
06:35PM 39.4814 -82.0678 357° North 434 499 28,300 -1,440 Descending Indianapolis Center
06:36PM 39.5997 -82.0733 358° North 433 498 26,900 -1,320 Descending Indianapolis Center
06:37PM 39.7128 -82.0800 357° North 420 483 25,600 -1,440 Descending Indianapolis Center
06:38PM 39.8481 -82.0886 357° North 412 474 24,000 -1,440 Descending Indianapolis Center
06:39PM 39.9650 -82.0892 360° North 417 480 22,700 -1,200 Descending Indianapolis Center
06:40PM 40.0872 -82.0383 18° North 458 527 21,600 -1,320 Descending Indianapolis Center
06:41PM 40.2097 -81.9836 19° North 463 533 20,000 -1,440 Descending Indianapolis Center
06:42PM 40.3303 -81.9372 16° North 446 513 18,700 -1,260 Descending Indianapolis Center
06:43PM 40.4608 -81.8897 15° North 418 481 17,500 -1,260 Descending Indianapolis Center
06:44PM 40.5722 -81.8497 15° North 416 479 16,200 -1,380 Descending Indianapolis Center
06:45PM 40.6400 -81.8256 15° North 389 448 15,200 -1,560 Descending Cleveland Center
06:45PM 40.6742 -81.8144 14° North 369 425 14,700 -1,440 Descending Cleveland Center
06:46PM 40.7397 -81.7886 17° North 375 432 13,700 -1,500 Descending Cleveland Center
06:46PM 40.7719 -81.7778 14° North 366 421 13,200 -1,380 Descending Cleveland Center
06:47PM 40.8364 -81.7536 16° North 361 415 12,300 -1,380 Descending Cleveland Center
06:47PM 40.8697 -81.7436 13° North 357 411 11,800 -1,200 Descending Cleveland Center
06:48PM 40.9333 -81.7197 16° North 360 414 11,100 -720 Descending Cleveland Center
06:48PM 40.9653 -81.7092 14° North 351 404 11,100  Level Cleveland Center
06:49PM 41.0272 -81.6847 17° North 352 405 11,100  Level Cleveland Center
06:49PM 41.0589 -81.6742 14° North 346 398 11,100 -780 Level Cleveland Center
06:50PM 41.1347 -81.6453 16° North 346 398 10,300 -1,020 Descending Cleveland Center
06:50PM 41.1503 -81.6389 17° North 332 382 10,100 -1,200 Descending Cleveland Center
06:51PM 41.2150 -81.6158 15° North 308 354 9,100 -1,200 Descending Cleveland Center
06:51PM 41.2283 -81.6094 20° North 288 331 8,900 -2,040 Descending Cleveland Center
06:52PM 41.2919 -81.5886 14° North 295 339 7,000 -2,220 Descending Cleveland Center
06:52PM 41.2956 -81.5869 19° North 292 336 6,900 -2,280 Descending Cleveland Center
06:53PM 41.3675 -81.5603 16° North 291 335 4,700 -2,040 Descending Cleveland Center
06:54PM 41.4436 -81.5294 17° North 284 327 3,100 -1,560 Descending Cleveland Center
06:54PM 41.4528 -81.5197 38° Northeast 284 327 3,100  Level Cleveland Center
06:55PM 41.4961 -81.4792 35° Northeast 241 277 3,100 -120 Level Cleveland Center
06:55PM 41.5103 -81.4647 37° Northeast 261 300 3,000 -120 Descending Cleveland Center
06:56PM 41.5503 -81.4150 43° Northeast 257 296 3,000 -120 Level Cleveland Center
06:56PM 41.5625 -81.4008 41° Northeast 252 290 2,900 -900 Descending Cleveland Center
06:57PM 41.5981 -81.3975 North 171 197 2,100 -1,020 Descending Cleveland Center
06:57PM 41.6050 -81.4056 319° Northwest 194 223 1,900 -480 Descending Cleveland Center
06:58PM 41.6011 -81.4342 260° West 108 124 1,700 -300 Descending Cleveland Center
06:58PM 41.5928 -81.4431 219° Southwest 140 161 1,600 -420 Descending Cleveland Center
06:59PM 41.5744 -81.4728 230° Southwest 115 132 1,100 -300 Descending Cleveland Center
07:00PM 41.5572 -81.5000 230° Southwest 112 129 1,000 -120 Descending Cleveland Center